sensor_id;sensor_type;location;lat;lon;timestamp;P1;durP1;ratioP1;P2;durP2;ratioP2
55813;SDS011;65494;42.818;0.404;2023-07-13T00:00:45;5.60;;;1.75;;
55813;SDS011;65494;42.818;0.404;2023-07-13T00:03:12;4.63;;;1.42;;
55813;SDS011;65494;42.818;0.404;2023-07-13T00:05:38;6.55;;;2.28;;
55813;SDS011;65494;42.818;0.404;2023-07-13T00:08:04;6.43;;;1.77;;
55813;SDS011;65494;42.818;0.404;2023-07-13T00:10:30;5.07;;;1.88;;
55813;SDS011;65494;42.818;0.404;2023-07-13T00:12:56;7.80;;;2.17;;
55813;SDS011;65494;42.818;0.404;2023-07-13T00:15:23;4.03;;;2.10;;
55813;SDS011;65494;42.818;0.404;2023-07-13T00:17:53;4.10;;;1.70;;
55813;SDS011;65494;42.818;0.404;2023-07-13T00:20:20;6.88;;;2.30;;
55813;SDS011;65494;42.818;0.404;2023-07-13T00:22:47;8.50;;;2.22;;
55813;SDS011;65494;42.818;0.404;2023-07-13T00:25:13;4.78;;;2.00;;
55813;SDS011;65494;42.818;0.404;2023-07-13T00:27:41;5.18;;;1.88;;
55813;SDS011;65494;42.818;0.404;2023-07-13T00:30:07;4.85;;;1.50;;
55813;SDS011;65494;42.818;0.404;2023-07-13T00:32:34;4.47;;;1.90;;
55813;SDS011;65494;42.818;0.404;2023-07-13T00:35:00;7.68;;;1.73;;
55813;SDS011;65494;42.818;0.404;2023-07-13T00:37:28;3.55;;;1.48;;
55813;SDS011;65494;42.818;0.404;2023-07-13T00:39:54;7.88;;;1.52;;
55813;SDS011;65494;42.818;0.404;2023-07-13T00:42:21;6.20;;;1.70;;
55813;SDS011;65494;42.818;0.404;2023-07-13T00:46:02;6.35;;;1.70;;
55813;SDS011;65494;42.818;0.404;2023-07-13T00:47:52;9.70;;;1.80;;
55813;SDS011;65494;42.818;0.404;2023-07-13T00:50:18;5.32;;;1.67;;
55813;SDS011;65494;42.818;0.404;2023-07-13T00:52:46;5.80;;;1.70;;
55813;SDS011;65494;42.818;0.404;2023-07-13T00:55:14;4.00;;;1.65;;
55813;SDS011;65494;42.818;0.404;2023-07-13T00:57:41;7.30;;;1.70;;
55813;SDS011;65494;42.818;0.404;2023-07-13T01:00:08;4.60;;;1.80;;
55813;SDS011;65494;42.818;0.404;2023-07-13T01:02:38;4.85;;;1.83;;
55813;SDS011;65494;42.818;0.404;2023-07-13T01:05:15;7.63;;;1.67;;
55813;SDS011;65494;42.818;0.404;2023-07-13T01:07:41;2.63;;;1.42;;
55813;SDS011;65494;42.818;0.404;2023-07-13T01:10:09;2.97;;;1.50;;
55813;SDS011;65494;42.818;0.404;2023-07-13T01:12:35;4.53;;;1.60;;
55813;SDS011;65494;42.818;0.404;2023-07-13T01:15:02;3.53;;;1.38;;
55813;SDS011;65494;42.818;0.404;2023-07-13T01:17:29;4.57;;;1.50;;
55813;SDS011;65494;42.818;0.404;2023-07-13T01:19:56;4.85;;;1.90;;
55813;SDS011;65494;42.818;0.404;2023-07-13T01:22:22;2.38;;;1.30;;
55813;SDS011;65494;42.818;0.404;2023-07-13T01:24:51;4.55;;;1.50;;
55813;SDS011;65494;42.818;0.404;2023-07-13T01:27:19;4.80;;;1.58;;
55813;SDS011;65494;42.818;0.404;2023-07-13T01:29:46;3.30;;;1.08;;
55813;SDS011;65494;42.818;0.404;2023-07-13T01:32:17;3.15;;;1.52;;
55813;SDS011;65494;42.818;0.404;2023-07-13T01:37:13;2.65;;;1.45;;
55813;SDS011;65494;42.818;0.404;2023-07-13T01:39:39;8.07;;;1.90;;
55813;SDS011;65494;42.818;0.404;2023-07-13T01:42:06;5.18;;;1.42;;
55813;SDS011;65494;42.818;0.404;2023-07-13T01:44:32;4.20;;;1.63;;
55813;SDS011;65494;42.818;0.404;2023-07-13T01:46:59;2.95;;;1.55;;
55813;SDS011;65494;42.818;0.404;2023-07-13T01:49:25;3.92;;;1.60;;
55813;SDS011;65494;42.818;0.404;2023-07-13T01:51:51;2.90;;;1.58;;
55813;SDS011;65494;42.818;0.404;2023-07-13T01:54:17;6.05;;;1.48;;
55813;SDS011;65494;42.818;0.404;2023-07-13T01:56:43;6.97;;;1.50;;
55813;SDS011;65494;42.818;0.404;2023-07-13T01:59:09;6.13;;;1.77;;
55813;SDS011;65494;42.818;0.404;2023-07-13T02:01:35;7.90;;;1.70;;
55813;SDS011;65494;42.818;0.404;2023-07-13T02:04:02;3.97;;;1.55;;
55813;SDS011;65494;42.818;0.404;2023-07-13T02:06:28;6.75;;;1.60;;
55813;SDS011;65494;42.818;0.404;2023-07-13T02:08:54;6.40;;;1.45;;
55813;SDS011;65494;42.818;0.404;2023-07-13T02:11:21;2.50;;;1.58;;
55813;SDS011;65494;42.818;0.404;2023-07-13T02:13:47;4.25;;;1.48;;
55813;SDS011;65494;42.818;0.404;2023-07-13T02:16:13;3.83;;;1.50;;
55813;SDS011;65494;42.818;0.404;2023-07-13T02:18:40;3.22;;;1.42;;
55813;SDS011;65494;42.818;0.404;2023-07-13T02:21:06;4.35;;;1.70;;
55813;SDS011;65494;42.818;0.404;2023-07-13T02:23:32;5.97;;;1.63;;
55813;SDS011;65494;42.818;0.404;2023-07-13T02:25:59;3.30;;;1.40;;
55813;SDS011;65494;42.818;0.404;2023-07-13T02:28:25;8.15;;;2.05;;
55813;SDS011;65494;42.818;0.404;2023-07-13T02:30:51;8.90;;;1.77;;
55813;SDS011;65494;42.818;0.404;2023-07-13T02:33:17;5.70;;;1.77;;
55813;SDS011;65494;42.818;0.404;2023-07-13T02:35:43;4.50;;;1.92;;
55813;SDS011;65494;42.818;0.404;2023-07-13T02:38:09;6.38;;;1.70;;
55813;SDS011;65494;42.818;0.404;2023-07-13T02:40:35;3.85;;;1.60;;
55813;SDS011;65494;42.818;0.404;2023-07-13T02:43:03;4.70;;;1.90;;
55813;SDS011;65494;42.818;0.404;2023-07-13T02:45:29;6.95;;;1.67;;
55813;SDS011;65494;42.818;0.404;2023-07-13T02:47:55;3.88;;;1.48;;
55813;SDS011;65494;42.818;0.404;2023-07-13T02:50:21;5.90;;;1.85;;
55813;SDS011;65494;42.818;0.404;2023-07-13T02:52:47;5.35;;;1.70;;
55813;SDS011;65494;42.818;0.404;2023-07-13T02:55:13;4.90;;;1.80;;
55813;SDS011;65494;42.818;0.404;2023-07-13T02:57:40;7.43;;;1.95;;
55813;SDS011;65494;42.818;0.404;2023-07-13T03:00:06;4.47;;;1.38;;
55813;SDS011;65494;42.818;0.404;2023-07-13T03:02:33;4.10;;;1.50;;
55813;SDS011;65494;42.818;0.404;2023-07-13T03:04:59;7.50;;;1.77;;
55813;SDS011;65494;42.818;0.404;2023-07-13T03:07:25;8.73;;;1.60;;
55813;SDS011;65494;42.818;0.404;2023-07-13T03:09:56;7.47;;;1.60;;
55813;SDS011;65494;42.818;0.404;2023-07-13T03:12:23;9.80;;;1.67;;
55813;SDS011;65494;42.818;0.404;2023-07-13T03:14:49;4.25;;;1.60;;
55813;SDS011;65494;42.818;0.404;2023-07-13T03:17:15;7.00;;;1.67;;
55813;SDS011;65494;42.818;0.404;2023-07-13T03:19:41;5.13;;;1.95;;
55813;SDS011;65494;42.818;0.404;2023-07-13T03:22:08;7.00;;;1.73;;
55813;SDS011;65494;42.818;0.404;2023-07-13T03:24:34;4.13;;;1.70;;
55813;SDS011;65494;42.818;0.404;2023-07-13T03:27:03;3.70;;;1.55;;
55813;SDS011;65494;42.818;0.404;2023-07-13T03:29:29;4.97;;;1.67;;
55813;SDS011;65494;42.818;0.404;2023-07-13T03:31:55;4.85;;;1.60;;
55813;SDS011;65494;42.818;0.404;2023-07-13T03:34:22;5.65;;;1.67;;
55813;SDS011;65494;42.818;0.404;2023-07-13T03:36:48;5.32;;;1.63;;
55813;SDS011;65494;42.818;0.404;2023-07-13T03:39:15;7.50;;;1.40;;
55813;SDS011;65494;42.818;0.404;2023-07-13T03:41:41;5.25;;;1.60;;
55813;SDS011;65494;42.818;0.404;2023-07-13T03:44:07;4.15;;;1.85;;
55813;SDS011;65494;42.818;0.404;2023-07-13T03:46:33;6.50;;;1.73;;
55813;SDS011;65494;42.818;0.404;2023-07-13T03:48:59;5.13;;;1.60;;
55813;SDS011;65494;42.818;0.404;2023-07-13T03:51:25;8.70;;;2.00;;
55813;SDS011;65494;42.818;0.404;2023-07-13T03:53:52;4.47;;;1.92;;
55813;SDS011;65494;42.818;0.404;2023-07-13T03:56:18;6.25;;;2.80;;
55813;SDS011;65494;42.818;0.404;2023-07-13T03:58:45;7.40;;;3.00;;
55813;SDS011;65494;42.818;0.404;2023-07-13T04:01:12;6.68;;;2.95;;
55813;SDS011;65494;42.818;0.404;2023-07-13T04:03:38;8.80;;;3.15;;
55813;SDS011;65494;42.818;0.404;2023-07-13T04:06:06;10.27;;;4.25;;
55813;SDS011;65494;42.818;0.404;2023-07-13T04:08:33;9.93;;;4.00;;
55813;SDS011;65494;42.818;0.404;2023-07-13T04:10:59;8.52;;;3.55;;
55813;SDS011;65494;42.818;0.404;2023-07-13T04:13:26;8.15;;;4.18;;
55813;SDS011;65494;42.818;0.404;2023-07-13T04:15:52;10.88;;;4.25;;
55813;SDS011;65494;42.818;0.404;2023-07-13T04:18:19;9.98;;;4.53;;
55813;SDS011;65494;42.818;0.404;2023-07-13T04:20:48;11.05;;;4.47;;
55813;SDS011;65494;42.818;0.404;2023-07-13T04:23:15;9.70;;;4.55;;
55813;SDS011;65494;42.818;0.404;2023-07-13T04:25:45;10.18;;;4.55;;
55813;SDS011;65494;42.818;0.404;2023-07-13T04:28:14;12.10;;;4.40;;
55813;SDS011;65494;42.818;0.404;2023-07-13T04:30:40;9.98;;;4.07;;
55813;SDS011;65494;42.818;0.404;2023-07-13T04:33:06;12.32;;;4.40;;
55813;SDS011;65494;42.818;0.404;2023-07-13T04:35:33;13.88;;;3.90;;
55813;SDS011;65494;42.818;0.404;2023-07-13T04:38:00;9.18;;;4.10;;
55813;SDS011;65494;42.818;0.404;2023-07-13T04:40:26;11.93;;;4.47;;
55813;SDS011;65494;42.818;0.404;2023-07-13T04:42:53;8.88;;;3.97;;
55813;SDS011;65494;42.818;0.404;2023-07-13T04:45:19;10.63;;;3.88;;
55813;SDS011;65494;42.818;0.404;2023-07-13T04:47:45;10.00;;;4.38;;
55813;SDS011;65494;42.818;0.404;2023-07-13T04:50:12;8.98;;;4.28;;
55813;SDS011;65494;42.818;0.404;2023-07-13T04:52:43;8.82;;;4.15;;
55813;SDS011;65494;42.818;0.404;2023-07-13T04:55:10;8.40;;;3.45;;
55813;SDS011;65494;42.818;0.404;2023-07-13T04:57:36;7.53;;;3.45;;
55813;SDS011;65494;42.818;0.404;2023-07-13T05:00:02;6.85;;;3.25;;
55813;SDS011;65494;42.818;0.404;2023-07-13T05:02:30;6.57;;;3.00;;
55813;SDS011;65494;42.818;0.404;2023-07-13T05:04:57;6.07;;;2.80;;
55813;SDS011;65494;42.818;0.404;2023-07-13T05:07:24;4.40;;;2.70;;
55813;SDS011;65494;42.818;0.404;2023-07-13T05:09:50;6.45;;;2.70;;
55813;SDS011;65494;42.818;0.404;2023-07-13T05:12:16;4.78;;;2.22;;
55813;SDS011;65494;42.818;0.404;2023-07-13T05:14:42;3.97;;;2.15;;
55813;SDS011;65494;42.818;0.404;2023-07-13T05:17:08;7.00;;;2.00;;
55813;SDS011;65494;42.818;0.404;2023-07-13T05:19:35;4.60;;;2.00;;
55813;SDS011;65494;42.818;0.404;2023-07-13T05:22:02;4.65;;;1.85;;
55813;SDS011;65494;42.818;0.404;2023-07-13T05:24:29;4.25;;;1.90;;
55813;SDS011;65494;42.818;0.404;2023-07-13T05:26:55;2.90;;;1.73;;
55813;SDS011;65494;42.818;0.404;2023-07-13T05:29:21;3.03;;;1.73;;
55813;SDS011;65494;42.818;0.404;2023-07-13T05:31:48;3.40;;;1.50;;
55813;SDS011;65494;42.818;0.404;2023-07-13T05:34:14;4.65;;;1.50;;
55813;SDS011;65494;42.818;0.404;2023-07-13T05:36:40;2.88;;;1.15;;
55813;SDS011;65494;42.818;0.404;2023-07-13T05:39:07;2.03;;;1.02;;
55813;SDS011;65494;42.818;0.404;2023-07-13T05:41:35;1.50;;;0.93;;
55813;SDS011;65494;42.818;0.404;2023-07-13T05:44:02;1.70;;;0.95;;
55813;SDS011;65494;42.818;0.404;2023-07-13T05:46:28;1.55;;;0.82;;
55813;SDS011;65494;42.818;0.404;2023-07-13T05:48:54;1.80;;;0.90;;
55813;SDS011;65494;42.818;0.404;2023-07-13T05:51:20;1.10;;;0.80;;
55813;SDS011;65494;42.818;0.404;2023-07-13T05:53:46;2.53;;;0.90;;
55813;SDS011;65494;42.818;0.404;2023-07-13T05:56:12;1.80;;;0.85;;
55813;SDS011;65494;42.818;0.404;2023-07-13T05:58:38;0.73;;;0.57;;
55813;SDS011;65494;42.818;0.404;2023-07-13T06:01:06;4.57;;;0.60;;
55813;SDS011;65494;42.818;0.404;2023-07-13T06:03:33;0.77;;;0.60;;
55813;SDS011;65494;42.818;0.404;2023-07-13T06:06:05;0.93;;;0.60;;
55813;SDS011;65494;42.818;0.404;2023-07-13T06:08:32;2.00;;;0.98;;
55813;SDS011;65494;42.818;0.404;2023-07-13T06:11:02;2.63;;;0.80;;
55813;SDS011;65494;42.818;0.404;2023-07-13T06:13:28;1.48;;;0.77;;
55813;SDS011;65494;42.818;0.404;2023-07-13T06:15:54;2.53;;;0.75;;
55813;SDS011;65494;42.818;0.404;2023-07-13T06:18:20;1.58;;;0.60;;
55813;SDS011;65494;42.818;0.404;2023-07-13T06:20:46;1.27;;;0.80;;
55813;SDS011;65494;42.818;0.404;2023-07-13T06:23:12;1.13;;;0.80;;
55813;SDS011;65494;42.818;0.404;2023-07-13T06:25:39;0.93;;;0.63;;
55813;SDS011;65494;42.818;0.404;2023-07-13T06:28:06;0.70;;;0.60;;
55813;SDS011;65494;42.818;0.404;2023-07-13T06:30:34;0.77;;;0.55;;
55813;SDS011;65494;42.818;0.404;2023-07-13T06:33:00;1.00;;;0.70;;
55813;SDS011;65494;42.818;0.404;2023-07-13T06:35:29;1.35;;;0.80;;
55813;SDS011;65494;42.818;0.404;2023-07-13T06:37:58;1.45;;;0.52;;
55813;SDS011;65494;42.818;0.404;2023-07-13T06:40:24;1.90;;;0.50;;
55813;SDS011;65494;42.818;0.404;2023-07-13T06:42:51;0.88;;;0.47;;
55813;SDS011;65494;42.818;0.404;2023-07-13T06:45:20;0.60;;;0.40;;
55813;SDS011;65494;42.818;0.404;2023-07-13T06:47:48;1.25;;;0.50;;
55813;SDS011;65494;42.818;0.404;2023-07-13T06:50:14;0.40;;;0.40;;
55813;SDS011;65494;42.818;0.404;2023-07-13T06:52:40;1.10;;;0.50;;
55813;SDS011;65494;42.818;0.404;2023-07-13T06:55:07;0.93;;;0.52;;
55813;SDS011;65494;42.818;0.404;2023-07-13T06:57:33;0.68;;;0.60;;
55813;SDS011;65494;42.818;0.404;2023-07-13T06:59:59;0.40;;;0.40;;
55813;SDS011;65494;42.818;0.404;2023-07-13T07:02:25;0.90;;;0.50;;
55813;SDS011;65494;42.818;0.404;2023-07-13T07:04:52;0.73;;;0.40;;
55813;SDS011;65494;42.818;0.404;2023-07-13T07:07:19;2.08;;;0.50;;
55813;SDS011;65494;42.818;0.404;2023-07-13T07:09:45;1.15;;;0.50;;
55813;SDS011;65494;42.818;0.404;2023-07-13T07:12:11;0.73;;;0.50;;
55813;SDS011;65494;42.818;0.404;2023-07-13T07:14:37;0.40;;;0.40;;
55813;SDS011;65494;42.818;0.404;2023-07-13T07:17:03;1.23;;;0.40;;
55813;SDS011;65494;42.818;0.404;2023-07-13T07:19:30;0.30;;;0.30;;
55813;SDS011;65494;42.818;0.404;2023-07-13T07:21:56;0.75;;;0.50;;
55813;SDS011;65494;42.818;0.404;2023-07-13T07:24:22;0.32;;;0.30;;
55813;SDS011;65494;42.818;0.404;2023-07-13T07:26:48;0.50;;;0.35;;
55813;SDS011;65494;42.818;0.404;2023-07-13T07:29:15;0.82;;;0.40;;
55813;SDS011;65494;42.818;0.404;2023-07-13T07:31:41;0.30;;;0.30;;
55813;SDS011;65494;42.818;0.404;2023-07-13T07:34:07;0.75;;;0.45;;
55813;SDS011;65494;42.818;0.404;2023-07-13T07:36:33;0.57;;;0.20;;
55813;SDS011;65494;42.818;0.404;2023-07-13T07:38:59;0.45;;;0.30;;
55813;SDS011;65494;42.818;0.404;2023-07-13T07:41:26;0.75;;;0.30;;
55813;SDS011;65494;42.818;0.404;2023-07-13T07:43:52;0.32;;;0.28;;
55813;SDS011;65494;42.818;0.404;2023-07-13T07:46:18;1.75;;;0.30;;
55813;SDS011;65494;42.818;0.404;2023-07-13T07:48:44;1.17;;;0.57;;
55813;SDS011;65494;42.818;0.404;2023-07-13T07:51:10;1.52;;;0.30;;
55813;SDS011;65494;42.818;0.404;2023-07-13T07:53:38;3.15;;;0.47;;
55813;SDS011;65494;42.818;0.404;2023-07-13T07:56:04;2.17;;;0.30;;
55813;SDS011;65494;42.818;0.404;2023-07-13T07:58:30;1.98;;;0.40;;
55813;SDS011;65494;42.818;0.404;2023-07-13T08:01:06;0.30;;;0.30;;
55813;SDS011;65494;42.818;0.404;2023-07-13T08:03:32;0.30;;;0.30;;
55813;SDS011;65494;42.818;0.404;2023-07-13T08:05:58;0.40;;;0.30;;
55813;SDS011;65494;42.818;0.404;2023-07-13T08:08:24;0.43;;;0.30;;
55813;SDS011;65494;42.818;0.404;2023-07-13T08:10:51;0.30;;;0.30;;
55813;SDS011;65494;42.818;0.404;2023-07-13T08:13:17;2.80;;;0.60;;
55813;SDS011;65494;42.818;0.404;2023-07-13T08:15:43;0.43;;;0.40;;
55813;SDS011;65494;42.818;0.404;2023-07-13T08:18:09;0.60;;;0.30;;
55813;SDS011;65494;42.818;0.404;2023-07-13T08:20:39;1.40;;;0.40;;
55813;SDS011;65494;42.818;0.404;2023-07-13T08:23:05;0.68;;;0.45;;
55813;SDS011;65494;42.818;0.404;2023-07-13T08:25:32;3.22;;;0.43;;
55813;SDS011;65494;42.818;0.404;2023-07-13T08:27:58;0.52;;;0.43;;
55813;SDS011;65494;42.818;0.404;2023-07-13T08:30:24;2.53;;;0.50;;
55813;SDS011;65494;42.818;0.404;2023-07-13T08:32:50;1.10;;;0.40;;
55813;SDS011;65494;42.818;0.404;2023-07-13T08:35:17;2.47;;;0.55;;
55813;SDS011;65494;42.818;0.404;2023-07-13T08:37:43;1.33;;;0.70;;
55813;SDS011;65494;42.818;0.404;2023-07-13T08:40:10;1.95;;;0.60;;
55813;SDS011;65494;42.818;0.404;2023-07-13T08:42:39;2.20;;;0.60;;
55813;SDS011;65494;42.818;0.404;2023-07-13T08:47:37;0.73;;;0.40;;
55813;SDS011;65494;42.818;0.404;2023-07-13T08:50:04;0.47;;;0.40;;
55813;SDS011;65494;42.818;0.404;2023-07-13T08:52:40;1.08;;;0.50;;
55813;SDS011;65494;42.818;0.404;2023-07-13T08:55:26;0.73;;;0.43;;
55813;SDS011;65494;42.818;0.404;2023-07-13T08:58:01;1.35;;;0.60;;
55813;SDS011;65494;42.818;0.404;2023-07-13T09:00:33;1.23;;;0.50;;
55813;SDS011;65494;42.818;0.404;2023-07-13T09:03:00;1.17;;;0.40;;
55813;SDS011;65494;42.818;0.404;2023-07-13T09:05:29;0.95;;;0.50;;
55813;SDS011;65494;42.818;0.404;2023-07-13T09:08:06;0.82;;;0.38;;
55813;SDS011;65494;42.818;0.404;2023-07-13T09:10:40;3.42;;;0.65;;
55813;SDS011;65494;42.818;0.404;2023-07-13T09:13:28;2.58;;;0.47;;
55813;SDS011;65494;42.818;0.404;2023-07-13T09:15:56;1.05;;;0.50;;
55813;SDS011;65494;42.818;0.404;2023-07-13T09:20:55;0.35;;;0.30;;
55813;SDS011;65494;42.818;0.404;2023-07-13T09:23:22;0.63;;;0.40;;
55813;SDS011;65494;42.818;0.404;2023-07-13T09:25:49;0.70;;;0.40;;
55813;SDS011;65494;42.818;0.404;2023-07-13T09:28:26;1.40;;;0.38;;
55813;SDS011;65494;42.818;0.404;2023-07-13T09:31:00;0.60;;;0.30;;
55813;SDS011;65494;42.818;0.404;2023-07-13T09:33:27;0.52;;;0.22;;
55813;SDS011;65494;42.818;0.404;2023-07-13T09:35:58;1.02;;;0.30;;
55813;SDS011;65494;42.818;0.404;2023-07-13T09:38:24;1.13;;;0.40;;
55813;SDS011;65494;42.818;0.404;2023-07-13T09:41:06;0.70;;;0.40;;
55813;SDS011;65494;42.818;0.404;2023-07-13T09:43:35;0.60;;;0.40;;
55813;SDS011;65494;42.818;0.404;2023-07-13T09:46:01;1.33;;;0.50;;
55813;SDS011;65494;42.818;0.404;2023-07-13T09:48:33;0.70;;;0.40;;
55813;SDS011;65494;42.818;0.404;2023-07-13T09:51:06;0.43;;;0.32;;
55813;SDS011;65494;42.818;0.404;2023-07-13T09:53:33;3.55;;;0.50;;
55813;SDS011;65494;42.818;0.404;2023-07-13T09:55:59;2.00;;;0.40;;
55813;SDS011;65494;42.818;0.404;2023-07-13T09:58:26;2.28;;;0.30;;
55813;SDS011;65494;42.818;0.404;2023-07-13T10:01:00;1.23;;;0.40;;
55813;SDS011;65494;42.818;0.404;2023-07-13T10:03:31;0.65;;;0.32;;
55813;SDS011;65494;42.818;0.404;2023-07-13T10:06:13;1.38;;;0.40;;
55813;SDS011;65494;42.818;0.404;2023-07-13T10:08:39;3.38;;;0.50;;
55813;SDS011;65494;42.818;0.404;2023-07-13T10:11:19;1.88;;;0.45;;
55813;SDS011;65494;42.818;0.404;2023-07-13T10:13:57;1.02;;;0.50;;
55813;SDS011;65494;42.818;0.404;2023-07-13T10:16:25;0.80;;;0.38;;
55813;SDS011;65494;42.818;0.404;2023-07-13T10:18:53;1.33;;;0.50;;
55813;SDS011;65494;42.818;0.404;2023-07-13T10:21:21;2.35;;;0.60;;
55813;SDS011;65494;42.818;0.404;2023-07-13T10:23:50;1.65;;;0.40;;
55813;SDS011;65494;42.818;0.404;2023-07-13T10:26:21;1.08;;;0.50;;
55813;SDS011;65494;42.818;0.404;2023-07-13T10:28:51;1.33;;;0.55;;
55813;SDS011;65494;42.818;0.404;2023-07-13T10:31:18;9.10;;;0.68;;
55813;SDS011;65494;42.818;0.404;2023-07-13T10:33:45;2.40;;;0.47;;
55813;SDS011;65494;42.818;0.404;2023-07-13T10:36:28;0.65;;;0.47;;
55813;SDS011;65494;42.818;0.404;2023-07-13T10:38:55;0.50;;;0.40;;
55813;SDS011;65494;42.818;0.404;2023-07-13T10:41:22;3.33;;;0.52;;
55813;SDS011;65494;42.818;0.404;2023-07-13T10:43:50;1.77;;;0.47;;
55813;SDS011;65494;42.818;0.404;2023-07-13T10:46:18;1.20;;;0.45;;
55813;SDS011;65494;42.818;0.404;2023-07-13T10:48:46;0.75;;;0.40;;
55813;SDS011;65494;42.818;0.404;2023-07-13T10:51:14;1.38;;;0.47;;
55813;SDS011;65494;42.818;0.404;2023-07-13T10:53:41;0.40;;;0.40;;
55813;SDS011;65494;42.818;0.404;2023-07-13T10:58:40;1.35;;;0.50;;
55813;SDS011;65494;42.818;0.404;2023-07-13T11:03:54;2.72;;;0.50;;
55813;SDS011;65494;42.818;0.404;2023-07-13T11:08:52;0.63;;;0.40;;
55813;SDS011;65494;42.818;0.404;2023-07-13T11:18:47;0.80;;;0.60;;
55813;SDS011;65494;42.818;0.404;2023-07-13T11:21:21;0.85;;;0.40;;
55813;SDS011;65494;42.818;0.404;2023-07-13T11:23:54;0.85;;;0.68;;
55813;SDS011;65494;42.818;0.404;2023-07-13T11:31:58;0.55;;;0.50;;
55813;SDS011;65494;42.818;0.404;2023-07-13T11:36:54;1.48;;;0.63;;
55813;SDS011;65494;42.818;0.404;2023-07-13T11:41:51;4.78;;;0.70;;
55813;SDS011;65494;42.818;0.404;2023-07-13T11:44:21;1.42;;;0.70;;
55813;SDS011;65494;42.818;0.404;2023-07-13T11:46:49;2.05;;;0.93;;
55813;SDS011;65494;42.818;0.404;2023-07-13T11:49:16;1.60;;;0.80;;
55813;SDS011;65494;42.818;0.404;2023-07-13T11:51:43;2.75;;;1.17;;
55813;SDS011;65494;42.818;0.404;2023-07-13T11:56:55;3.45;;;1.10;;
55813;SDS011;65494;42.818;0.404;2023-07-13T11:59:25;3.20;;;1.90;;
55813;SDS011;65494;42.818;0.404;2023-07-13T12:01:52;1.90;;;1.20;;
55813;SDS011;65494;42.818;0.404;2023-07-13T12:04:22;2.28;;;0.80;;
55813;SDS011;65494;42.818;0.404;2023-07-13T12:06:54;3.92;;;1.00;;
55813;SDS011;65494;42.818;0.404;2023-07-13T12:09:20;1.17;;;0.85;;
55813;SDS011;65494;42.818;0.404;2023-07-13T12:11:50;1.38;;;0.80;;
55813;SDS011;65494;42.818;0.404;2023-07-13T12:14:17;4.65;;;0.70;;
55813;SDS011;65494;42.818;0.404;2023-07-13T12:16:44;1.33;;;0.75;;
55813;SDS011;65494;42.818;0.404;2023-07-13T12:19:18;2.10;;;0.65;;
55813;SDS011;65494;42.818;0.404;2023-07-13T12:21:44;1.08;;;0.73;;
55813;SDS011;65494;42.818;0.404;2023-07-13T12:24:15;2.05;;;0.90;;
55813;SDS011;65494;42.818;0.404;2023-07-13T12:26:41;2.03;;;0.70;;
55813;SDS011;65494;42.818;0.404;2023-07-13T12:29:07;2.33;;;0.80;;
55813;SDS011;65494;42.818;0.404;2023-07-13T12:31:35;2.85;;;1.05;;
55813;SDS011;65494;42.818;0.404;2023-07-13T12:34:12;2.08;;;1.00;;
55813;SDS011;65494;42.818;0.404;2023-07-13T12:37:00;2.10;;;1.05;;
55813;SDS011;65494;42.818;0.404;2023-07-13T12:39:45;1.77;;;0.93;;
55813;SDS011;65494;42.818;0.404;2023-07-13T12:44:42;2.58;;;1.20;;
55813;SDS011;65494;42.818;0.404;2023-07-13T12:47:11;2.17;;;1.00;;
55813;SDS011;65494;42.818;0.404;2023-07-13T12:49:42;2.40;;;0.90;;
55813;SDS011;65494;42.818;0.404;2023-07-13T12:52:21;2.83;;;1.10;;
55813;SDS011;65494;42.818;0.404;2023-07-13T12:54:57;3.45;;;1.15;;
55813;SDS011;65494;42.818;0.404;2023-07-13T12:57:24;2.40;;;1.20;;
55813;SDS011;65494;42.818;0.404;2023-07-13T12:59:53;3.15;;;1.20;;
55813;SDS011;65494;42.818;0.404;2023-07-13T13:02:29;2.20;;;1.10;;
55813;SDS011;65494;42.818;0.404;2023-07-13T13:04:56;2.97;;;1.25;;
55813;SDS011;65494;42.818;0.404;2023-07-13T13:07:23;3.55;;;1.13;;
55813;SDS011;65494;42.818;0.404;2023-07-13T13:09:49;1.40;;;0.85;;
55813;SDS011;65494;42.818;0.404;2023-07-13T13:12:15;2.38;;;1.13;;
55813;SDS011;65494;42.818;0.404;2023-07-13T13:14:42;2.55;;;1.40;;
55813;SDS011;65494;42.818;0.404;2023-07-13T13:17:17;1.90;;;1.02;;
55813;SDS011;65494;42.818;0.404;2023-07-13T13:19:44;2.50;;;1.10;;
55813;SDS011;65494;42.818;0.404;2023-07-13T13:22:10;1.73;;;1.00;;
55813;SDS011;65494;42.818;0.404;2023-07-13T13:24:37;1.83;;;0.90;;
55813;SDS011;65494;42.818;0.404;2023-07-13T13:27:03;2.67;;;1.05;;
55813;SDS011;65494;42.818;0.404;2023-07-13T13:29:31;2.33;;;1.10;;
55813;SDS011;65494;42.818;0.404;2023-07-13T13:31:58;2.25;;;1.13;;
55813;SDS011;65494;42.818;0.404;2023-07-13T13:34:24;5.70;;;1.30;;
55813;SDS011;65494;42.818;0.404;2023-07-13T13:36:51;2.38;;;1.13;;
55813;SDS011;65494;42.818;0.404;2023-07-13T13:39:25;2.58;;;0.90;;
55813;SDS011;65494;42.818;0.404;2023-07-13T13:41:54;2.97;;;1.13;;
55813;SDS011;65494;42.818;0.404;2023-07-13T13:44:20;1.65;;;1.17;;
55813;SDS011;65494;42.818;0.404;2023-07-13T13:46:48;2.75;;;1.42;;
55813;SDS011;65494;42.818;0.404;2023-07-13T13:49:17;3.50;;;1.25;;
55813;SDS011;65494;42.818;0.404;2023-07-13T13:51:44;4.45;;;1.17;;
55813;SDS011;65494;42.818;0.404;2023-07-13T13:54:11;4.35;;;1.35;;
55813;SDS011;65494;42.818;0.404;2023-07-13T13:56:37;3.83;;;1.35;;
55813;SDS011;65494;42.818;0.404;2023-07-13T13:59:04;4.85;;;1.40;;
55813;SDS011;65494;42.818;0.404;2023-07-13T14:01:30;2.42;;;1.20;;
55813;SDS011;65494;42.818;0.404;2023-07-13T14:03:56;3.80;;;1.17;;
55813;SDS011;65494;42.818;0.404;2023-07-13T14:06:24;5.78;;;1.52;;
55813;SDS011;65494;42.818;0.404;2023-07-13T14:08:50;2.70;;;1.30;;
55813;SDS011;65494;42.818;0.404;2023-07-13T14:11:17;4.13;;;1.20;;
55813;SDS011;65494;42.818;0.404;2023-07-13T14:13:45;4.32;;;1.40;;
55813;SDS011;65494;42.818;0.404;2023-07-13T14:16:13;4.35;;;1.30;;
55813;SDS011;65494;42.818;0.404;2023-07-13T14:18:42;1.98;;;1.25;;
55813;SDS011;65494;42.818;0.404;2023-07-13T14:21:15;2.47;;;1.40;;
55813;SDS011;65494;42.818;0.404;2023-07-13T14:23:43;3.45;;;1.50;;
55813;SDS011;65494;42.818;0.404;2023-07-13T14:26:19;2.92;;;1.20;;
55813;SDS011;65494;42.818;0.404;2023-07-13T14:28:49;1.85;;;1.23;;
55813;SDS011;65494;42.818;0.404;2023-07-13T14:31:16;2.85;;;1.40;;
55813;SDS011;65494;42.818;0.404;2023-07-13T14:33:43;4.00;;;1.40;;
55813;SDS011;65494;42.818;0.404;2023-07-13T14:36:52;2.33;;;1.17;;
55813;SDS011;65494;42.818;0.404;2023-07-13T14:39:00;2.55;;;1.23;;
55813;SDS011;65494;42.818;0.404;2023-07-13T14:41:26;3.63;;;1.20;;
55813;SDS011;65494;42.818;0.404;2023-07-13T14:43:52;5.07;;;1.40;;
55813;SDS011;65494;42.818;0.404;2023-07-13T14:46:29;3.05;;;1.30;;
55813;SDS011;65494;42.818;0.404;2023-07-13T14:49:06;3.55;;;1.30;;
55813;SDS011;65494;42.818;0.404;2023-07-13T14:51:33;2.50;;;1.23;;
55813;SDS011;65494;42.818;0.404;2023-07-13T14:54:02;3.17;;;1.40;;
55813;SDS011;65494;42.818;0.404;2023-07-13T14:56:28;2.08;;;1.10;;
55813;SDS011;65494;42.818;0.404;2023-07-13T14:58:54;2.80;;;1.30;;
55813;SDS011;65494;42.818;0.404;2023-07-13T15:01:20;2.13;;;1.30;;
55813;SDS011;65494;42.818;0.404;2023-07-13T15:03:48;3.95;;;1.38;;
55813;SDS011;65494;42.818;0.404;2023-07-13T15:06:14;3.42;;;1.42;;
55813;SDS011;65494;42.818;0.404;2023-07-13T15:08:41;2.50;;;1.40;;
55813;SDS011;65494;42.818;0.404;2023-07-13T15:11:08;3.20;;;1.30;;
55813;SDS011;65494;42.818;0.404;2023-07-13T15:13:39;2.45;;;1.20;;
55813;SDS011;65494;42.818;0.404;2023-07-13T15:16:16;2.60;;;1.38;;
55813;SDS011;65494;42.818;0.404;2023-07-13T15:18:43;2.78;;;1.33;;
55813;SDS011;65494;42.818;0.404;2023-07-13T15:21:10;3.60;;;1.50;;
55813;SDS011;65494;42.818;0.404;2023-07-13T15:23:39;3.75;;;1.10;;
55813;SDS011;65494;42.818;0.404;2023-07-13T15:26:05;1.98;;;1.20;;
55813;SDS011;65494;42.818;0.404;2023-07-13T15:28:32;2.40;;;1.40;;
55813;SDS011;65494;42.818;0.404;2023-07-13T15:30:59;1.75;;;1.00;;